地図

経路データ

SID SEASON NUMBER BASIN SUBBASIN NAME ISO_TIME NATURE LAT LON WMO_WIND WMO_PRES WMO_AGENCY TRACK_TYPE DIST2LAND LANDFALL IFLAG USA_AGENCY USA_ATCF_ID USA_LAT USA_LON USA_RECORD USA_STATUS USA_WIND USA_PRES USA_SSHS USA_R34_NE USA_R34_SE USA_R34_SW USA_R34_NW USA_R50_NE USA_R50_SE USA_R50_SW USA_R50_NW USA_R64_NE USA_R64_SE USA_R64_SW USA_R64_NW USA_POCI USA_ROCI USA_RMW USA_EYE TOKYO_LAT TOKYO_LON TOKYO_GRADE TOKYO_WIND TOKYO_PRES TOKYO_R50_DIR TOKYO_R50_LONG TOKYO_R50_SHORT TOKYO_R30_DIR TOKYO_R30_LONG TOKYO_R30_SHORT TOKYO_LAND CMA_LAT CMA_LON CMA_CAT CMA_WIND CMA_PRES HKO_LAT HKO_LON HKO_CAT HKO_WIND HKO_PRES NEWDELHI_LAT NEWDELHI_LON NEWDELHI_GRADE NEWDELHI_WIND NEWDELHI_PRES NEWDELHI_CI NEWDELHI_DP NEWDELHI_POCI REUNION_LAT REUNION_LON REUNION_TYPE REUNION_WIND REUNION_PRES REUNION_TNUM REUNION_CI REUNION_RMW REUNION_R34_NE REUNION_R34_SE REUNION_R34_SW REUNION_R34_NW REUNION_R50_NE REUNION_R50_SE REUNION_R50_SW REUNION_R50_NW REUNION_R64_NE REUNION_R64_SE REUNION_R64_SW REUNION_R64_NW BOM_LAT BOM_LON BOM_TYPE BOM_WIND BOM_PRES BOM_TNUM BOM_CI BOM_RMW BOM_R34_NE BOM_R34_SE BOM_R34_SW BOM_R34_NW BOM_R50_NE BOM_R50_SE BOM_R50_SW BOM_R50_NW BOM_R64_NE BOM_R64_SE BOM_R64_SW BOM_R64_NW BOM_ROCI BOM_POCI BOM_EYE BOM_POS_METHOD BOM_PRES_METHOD NADI_LAT NADI_LON NADI_CAT NADI_WIND NADI_PRES WELLINGTON_LAT WELLINGTON_LON WELLINGTON_WIND WELLINGTON_PRES DS824_LAT DS824_LON DS824_STAGE DS824_WIND DS824_PRES TD9636_LAT TD9636_LON TD9636_STAGE TD9636_WIND TD9636_PRES TD9635_LAT TD9635_LON TD9635_WIND TD9635_PRES TD9635_ROCI NEUMANN_LAT NEUMANN_LON NEUMANN_CLASS NEUMANN_WIND NEUMANN_PRES MLC_LAT MLC_LON MLC_CLASS MLC_WIND MLC_PRES USA_GUST BOM_GUST BOM_GUST_PER REUNION_GUST REUNION_GUST_PER USA_SEAHGT USA_SEARAD_NE USA_SEARAD_SE USA_SEARAD_SW USA_SEARAD_NW STORM_SPEED STORM_DIR
1910143N15114 1910 21 WP MM NOT_NAMED 1910-05-23 04:00:00 NR 15.1000 114.300 main 555 555 __________O___ -1 15.1000 114.300 2 3 50
1910143N15114 1910 21 WP MM NOT_NAMED 1910-05-23 06:00:00 NR 15.1620 114.384 main 568 562 __________P___ -1 15.1620 114.384 2 3 53
1910143N15114 1910 21 WP MM NOT_NAMED 1910-05-23 09:00:00 NR 15.2504 114.510 main 562 551 __________P___ -1 15.2504 114.510 2 3 56
1910143N15114 1910 21 WP MM NOT_NAMED 1910-05-23 12:00:00 NR 15.3273 114.636 main 551 528 __________P___ -1 15.3273 114.636 2 3 61
1910143N15114 1910 21 WP MM NOT_NAMED 1910-05-23 15:00:00 NR 15.3858 114.759 main 528 528 __________P___ -1 15.3858 114.759 2 3 65
1910143N15114 1910 21 WP MM NOT_NAMED 1910-05-23 16:00:00 NR 15.4000 114.800 main 528 518 __________O___ -1 15.4000 114.800 2 2 74
1910143N15114 1910 21 WP MM NOT_NAMED 1910-05-23 18:00:00 NR 15.4206 114.881 main 518 507 __________P___ -1 15.4206 114.881 2 2 77
1910143N15114 1910 21 WP MM NOT_NAMED 1910-05-23 21:00:00 NR 15.4448 115.009 main 507 484 __________P___ -1 15.4448 115.009 2 3 77
1910143N15114 1910 21 WP MM NOT_NAMED 1910-05-24 00:00:00 NR 15.4833 115.156 main 484 473 __________P___ -1 15.4833 115.156 2 3 70
1910143N15114 1910 21 WP MM NOT_NAMED 1910-05-24 03:00:00 NR 15.5610 115.332 main 473 462 __________P___ -1 15.5610 115.332 2 4 64
1910143N15114 1910 21 WP MM NOT_NAMED 1910-05-24 04:00:00 NR 15.6000 115.400 main 462 440 __________O___ -1 15.6000 115.400 2 5 55
1910143N15114 1910 21 WP MM NOT_NAMED 1910-05-24 06:00:00 NR 15.7101 115.555 main 440 417 __________P___ -1 15.7101 115.555 2 6 52
1910143N15114 1910 21 WP MM NOT_NAMED 1910-05-24 09:00:00 NR 15.9193 115.818 main 417 384 __________P___ -1 15.9193 115.818 2 7 50
1910143N15114 1910 21 WP MM NOT_NAMED 1910-05-24 12:00:00 NR 16.1621 116.106 main 385 355 __________P___ -1 16.1621 116.106 2 8 48
1910143N15114 1910 21 WP MM NOT_NAMED 1910-05-24 15:00:00 NR 16.4164 116.402 main 355 346 __________P___ -1 16.4164 116.402 2 8 48
1910143N15114 1910 21 WP MM NOT_NAMED 1910-05-24 16:00:00 NR 16.5000 116.500 main 346 327 __________O___ -1 16.5000 116.500 2 7 49
1910143N15114 1910 21 WP MM NOT_NAMED 1910-05-24 18:00:00 NR 16.6340 116.666 main 327 311 __________P___ -1 16.6340 116.666 2 6 50
1910143N15114 1910 21 WP MM NOT_NAMED 1910-05-24 21:00:00 NR 16.8347 116.913 main 311 287 __________P___ -1 16.8347 116.913 2 6 50
1910143N15114 1910 21 WP MM NOT_NAMED 1910-05-25 00:00:00 NR 17.0520 117.179 main 291 269 __________P___ -1 17.0520 117.179 2 7 49
1910143N15114 1910 21 WP MM NOT_NAMED 1910-05-25 03:00:00 NR 17.3047 117.485 main 269 264 __________P___ -1 17.3047 117.485 2 8 49
1910143N15114 1910 21 WP MM NOT_NAMED 1910-05-25 04:00:00 NR 17.4000 117.600 main 264 249 __________O___ -1 17.4000 117.600 2 10 49
1910143N15114 1910 21 WP MM NOT_NAMED 1910-05-25 06:00:00 NR 17.6240 117.875 main 249 214 __________P___ -1 17.6240 117.875 2 11 49
1910143N15114 1910 21 WP MM NOT_NAMED 1910-05-25 09:00:00 NR 17.9978 118.333 main 216 176 __________P___ -1 17.9978 118.333 2 12 49
1910143N15114 1910 21 WP MM NOT_NAMED 1910-05-25 12:00:00 NR 18.3918 118.808 main 182 144 __________P___ -1 18.3918 118.808 2 12 48
1910143N15114 1910 21 WP MM NOT_NAMED 1910-05-25 15:00:00 NR 18.7779 119.261 main 144 138 __________P___ -1 18.7779 119.261 2 11 48
1910143N15114 1910 21 WP MM NOT_NAMED 1910-05-25 16:00:00 NR 18.9000 119.400 main 138 131 __________O___ -1 18.9000 119.400 2 9 45
1910143N15114 1910 21 WP MM NOT_NAMED 1910-05-25 18:00:00 NR 19.1031 119.604 main 131 130 __________P___ -1 19.1031 119.604 2 8 42
1910143N15114 1910 21 WP MM NOT_NAMED 1910-05-25 21:00:00 NR 19.3890 119.871 main 130 130 __________P___ -1 19.3890 119.871 2 8 42
1910143N15114 1910 21 WP MM NOT_NAMED 1910-05-26 00:00:00 NR 19.6751 120.141 main 143 138 __________P___ -1 19.6751 120.141 2 8 43
1910143N15114 1910 21 WP MM NOT_NAMED 1910-05-26 03:00:00 NR 19.9863 120.468 main 159 159 __________P___ -1 19.9863 120.468 2 9 45
1910143N15114 1910 21 WP MM NOT_NAMED 1910-05-26 04:00:00 NR 20.1000 120.600 main 169 167 __________O___ -1 20.1000 120.600 2 12 49
1910143N15114 1910 21 WP MM NOT_NAMED 1910-05-26 06:00:00 NR 20.3604 120.931 main 167 137 __________P___ -1 20.3604 120.931 2 13 51
1910143N15114 1910 21 WP MM NOT_NAMED 1910-05-26 09:00:00 NR 20.7825 121.503 main 137 130 __________P___ -1 20.7825 121.503 2 14 53
1910143N15114 1910 21 WP MM NOT_NAMED 1910-05-26 12:00:00 NR 21.2226 122.134 main 146 150 __________P___ -1 21.2226 122.134 2 15 54
1910143N15114 1910 21 WP MM NOT_NAMED 1910-05-26 15:00:00 NR 21.6590 122.785 main 197 197 __________P___ -1 21.6590 122.785 2 15 54
1910143N15114 1910 21 WP MM NOT_NAMED 1910-05-26 16:00:00 NR 21.8000 123.000 main 216 216 __________O___ -1 21.8000 123.000 2 14 54
1910143N15114 1910 21 WP MM NOT_NAMED 1910-05-26 18:00:00 NR 22.0605 123.386 main 233 233 __________P___ -1 22.0605 123.386 2 13 54
1910143N15114 1910 21 WP MM NOT_NAMED 1910-05-26 21:00:00 NR 22.4391 123.963 main 277 274 __________P___ -1 22.4391 123.963 2 13 55
1910143N15114 1910 21 WP MM NOT_NAMED 1910-05-27 00:00:00 NR 22.8090 124.555 main 329 329 __________P___ -1 22.8090 124.555 2 13 57
1910143N15114 1910 21 WP MM NOT_NAMED 1910-05-27 03:00:00 NR 23.1768 125.181 main 365 365 __________P___ -1 23.1768 125.181 2 14 58
1910143N15114 1910 21 WP MM NOT_NAMED 1910-05-27 04:00:00 NR 23.3000 125.400 main 380 380 __________O___ -1 23.3000 125.400 2 15 59
1910143N15114 1910 21 WP MM NOT_NAMED 1910-05-27 06:00:00 NR 23.5527 125.871 main 418 418 __________P___ -1 23.5527 125.871 2 15 60
1910143N15114 1910 21 WP MM NOT_NAMED 1910-05-27 09:00:00 NR 23.9318 126.616 main 481 488 __________P___ -1 23.9318 126.616 2 16 61
1910143N15114 1910 21 WP MM NOT_NAMED 1910-05-27 12:00:00 NR 24.3080 127.384 main 550 550 __________P___ -1 24.3080 127.384 2 16 62
1910143N15114 1910 21 WP MM NOT_NAMED 1910-05-27 15:00:00 NR 24.6783 128.150 main 615 626 __________P___ -1 24.6783 128.150 2 16 62
1910143N15114 1910 21 WP MM NOT_NAMED 1910-05-27 16:00:00 NR 24.8000 128.400 main 645 645 __________O___ -1 24.8000 128.400 2 15 62
1910143N15114 1910 21 WP MM NOT_NAMED 1910-05-27 18:00:00 NR 25.0405 128.890 main 692 634 __________P___ -1 25.0405 128.890 2 15 61
1910143N15114 1910 21 WP MM NOT_NAMED 1910-05-27 21:00:00 NR 25.3948 129.600 main 634 592 __________P___ -1 25.3948 129.600 2 15 61
1910143N15114 1910 21 WP MM NOT_NAMED 1910-05-28 00:00:00 NR 25.7430 130.292 main 592 547 __________P___ -1 25.7430 130.292 2 14 61
1910143N15114 1910 21 WP MM NOT_NAMED 1910-05-28 03:00:00 NR 26.0864 130.973 main 547 537 __________P___ -1 26.0864 130.973 2 14 61
1910143N15114 1910 21 WP MM NOT_NAMED 1910-05-28 04:00:00 NR 26.2000 131.200 main 538 __________O___ -1 26.2000 131.200 2 14 60

デジタル台風データ・検索

IBTrACS Databaseについて

本データベースは、米国NOAAが公開する1842年以降の世界の熱帯低気圧のベストトラックデータアーカイブInternational Best Track Archive for Climate Stewardship (IBTrACS)を、ウェブで閲覧しやすい形式に変換したものです。

最終更新日:2021-11-26